sensor_id;sensor_type;location;lat;lon;timestamp;P1;durP1;ratioP1;P2;durP2;ratioP2
62050;SDS011;48008;51.204;6.766;2022-07-10T00:00:03;9.45;;;2.40;;
62050;SDS011;48008;51.204;6.766;2022-07-10T00:02:48;18.65;;;4.03;;
62050;SDS011;48008;51.204;6.766;2022-07-10T00:05:15;11.98;;;2.10;;
62050;SDS011;48008;51.204;6.766;2022-07-10T00:07:45;14.30;;;2.30;;
62050;SDS011;48008;51.204;6.766;2022-07-10T00:10:12;12.32;;;2.45;;
62050;SDS011;48008;51.204;6.766;2022-07-10T00:12:39;10.98;;;2.30;;
62050;SDS011;48008;51.204;6.766;2022-07-10T00:15:06;16.55;;;2.45;;
62050;SDS011;48008;51.204;6.766;2022-07-10T00:17:33;8.60;;;2.08;;
62050;SDS011;48008;51.204;6.766;2022-07-10T00:20:00;16.08;;;2.55;;
62050;SDS011;48008;51.204;6.766;2022-07-10T00:22:26;11.65;;;2.35;;
62050;SDS011;48008;51.204;6.766;2022-07-10T00:24:53;10.32;;;2.30;;
62050;SDS011;48008;51.204;6.766;2022-07-10T00:27:20;7.88;;;2.28;;
62050;SDS011;48008;51.204;6.766;2022-07-10T00:29:47;11.48;;;2.25;;
62050;SDS011;48008;51.204;6.766;2022-07-10T00:32:13;13.82;;;2.50;;
62050;SDS011;48008;51.204;6.766;2022-07-10T00:34:40;10.40;;;2.67;;
62050;SDS011;48008;51.204;6.766;2022-07-10T00:37:07;12.38;;;2.17;;
62050;SDS011;48008;51.204;6.766;2022-07-10T00:39:34;13.55;;;2.33;;
62050;SDS011;48008;51.204;6.766;2022-07-10T00:42:10;8.65;;;2.20;;
62050;SDS011;48008;51.204;6.766;2022-07-10T00:44:40;14.57;;;2.78;;
62050;SDS011;48008;51.204;6.766;2022-07-10T00:47:09;13.00;;;2.78;;
62050;SDS011;48008;51.204;6.766;2022-07-10T00:49:37;12.68;;;2.38;;
62050;SDS011;48008;51.204;6.766;2022-07-10T00:52:06;14.38;;;2.53;;
62050;SDS011;48008;51.204;6.766;2022-07-10T00:54:34;12.95;;;2.50;;
62050;SDS011;48008;51.204;6.766;2022-07-10T00:57:02;12.77;;;2.60;;
62050;SDS011;48008;51.204;6.766;2022-07-10T00:59:31;11.57;;;2.60;;
62050;SDS011;48008;51.204;6.766;2022-07-10T01:01:58;10.68;;;2.30;;
62050;SDS011;48008;51.204;6.766;2022-07-10T01:04:26;10.27;;;2.40;;
62050;SDS011;48008;51.204;6.766;2022-07-10T01:06:53;16.85;;;2.75;;
62050;SDS011;48008;51.204;6.766;2022-07-10T01:09:20;14.45;;;2.58;;
62050;SDS011;48008;51.204;6.766;2022-07-10T01:11:46;12.75;;;3.28;;
62050;SDS011;48008;51.204;6.766;2022-07-10T01:14:14;14.25;;;2.70;;
62050;SDS011;48008;51.204;6.766;2022-07-10T01:16:42;18.73;;;2.60;;
62050;SDS011;48008;51.204;6.766;2022-07-10T01:19:09;16.13;;;2.40;;
62050;SDS011;48008;51.204;6.766;2022-07-10T01:21:36;14.52;;;3.20;;
62050;SDS011;48008;51.204;6.766;2022-07-10T01:24:04;15.48;;;2.78;;
62050;SDS011;48008;51.204;6.766;2022-07-10T01:26:33;12.98;;;2.47;;
62050;SDS011;48008;51.204;6.766;2022-07-10T01:29:04;13.23;;;2.28;;
62050;SDS011;48008;51.204;6.766;2022-07-10T01:34:00;12.63;;;2.40;;
62050;SDS011;48008;51.204;6.766;2022-07-10T01:36:28;12.93;;;2.50;;
62050;SDS011;48008;51.204;6.766;2022-07-10T01:38:56;12.43;;;2.40;;
62050;SDS011;48008;51.204;6.766;2022-07-10T01:41:24;8.98;;;2.30;;
62050;SDS011;48008;51.204;6.766;2022-07-10T01:43:52;13.07;;;2.40;;
62050;SDS011;48008;51.204;6.766;2022-07-10T01:46:19;10.07;;;2.10;;
62050;SDS011;48008;51.204;6.766;2022-07-10T01:48:47;12.80;;;2.50;;
62050;SDS011;48008;51.204;6.766;2022-07-10T01:51:14;9.35;;;2.30;;
62050;SDS011;48008;51.204;6.766;2022-07-10T01:53:41;14.70;;;1.95;;
62050;SDS011;48008;51.204;6.766;2022-07-10T01:56:08;12.00;;;2.00;;
62050;SDS011;48008;51.204;6.766;2022-07-10T01:58:36;12.13;;;2.58;;
62050;SDS011;48008;51.204;6.766;2022-07-10T02:01:04;9.98;;;2.08;;
62050;SDS011;48008;51.204;6.766;2022-07-10T02:03:32;9.75;;;2.20;;
62050;SDS011;48008;51.204;6.766;2022-07-10T02:06:19;15.55;;;2.20;;
62050;SDS011;48008;51.204;6.766;2022-07-10T02:08:46;14.02;;;2.28;;
62050;SDS011;48008;51.204;6.766;2022-07-10T02:11:13;11.82;;;2.40;;
62050;SDS011;48008;51.204;6.766;2022-07-10T02:13:39;9.75;;;2.10;;
62050;SDS011;48008;51.204;6.766;2022-07-10T02:16:06;14.43;;;2.22;;
62050;SDS011;48008;51.204;6.766;2022-07-10T02:18:33;13.70;;;2.53;;
62050;SDS011;48008;51.204;6.766;2022-07-10T02:21:00;13.38;;;2.35;;
62050;SDS011;48008;51.204;6.766;2022-07-10T02:23:26;8.02;;;1.90;;
62050;SDS011;48008;51.204;6.766;2022-07-10T02:25:54;12.50;;;1.95;;
62050;SDS011;48008;51.204;6.766;2022-07-10T02:28:22;10.32;;;2.10;;
62050;SDS011;48008;51.204;6.766;2022-07-10T02:30:48;15.50;;;2.75;;
62050;SDS011;48008;51.204;6.766;2022-07-10T02:33:15;11.10;;;2.10;;
62050;SDS011;48008;51.204;6.766;2022-07-10T02:35:42;10.77;;;2.35;;
62050;SDS011;48008;51.204;6.766;2022-07-10T02:38:08;13.57;;;2.58;;
62050;SDS011;48008;51.204;6.766;2022-07-10T02:40:35;12.75;;;2.40;;
62050;SDS011;48008;51.204;6.766;2022-07-10T02:43:02;15.10;;;2.33;;
62050;SDS011;48008;51.204;6.766;2022-07-10T02:45:28;9.38;;;2.10;;
62050;SDS011;48008;51.204;6.766;2022-07-10T02:47:55;17.52;;;2.50;;
62050;SDS011;48008;51.204;6.766;2022-07-10T02:50:23;12.95;;;2.53;;
62050;SDS011;48008;51.204;6.766;2022-07-10T02:52:49;14.25;;;2.30;;
62050;SDS011;48008;51.204;6.766;2022-07-10T02:55:16;10.10;;;2.17;;
62050;SDS011;48008;51.204;6.766;2022-07-10T02:57:43;13.38;;;2.30;;
62050;SDS011;48008;51.204;6.766;2022-07-10T03:00:10;9.95;;;2.33;;
62050;SDS011;48008;51.204;6.766;2022-07-10T03:02:37;12.00;;;2.35;;
62050;SDS011;48008;51.204;6.766;2022-07-10T03:05:04;13.75;;;2.58;;
62050;SDS011;48008;51.204;6.766;2022-07-10T03:07:32;11.07;;;2.15;;
62050;SDS011;48008;51.204;6.766;2022-07-10T03:09:58;11.05;;;2.20;;
62050;SDS011;48008;51.204;6.766;2022-07-10T03:12:25;11.27;;;2.10;;
62050;SDS011;48008;51.204;6.766;2022-07-10T03:14:52;8.55;;;2.20;;
62050;SDS011;48008;51.204;6.766;2022-07-10T03:17:19;12.13;;;2.58;;
62050;SDS011;48008;51.204;6.766;2022-07-10T03:19:45;12.63;;;2.63;;
62050;SDS011;48008;51.204;6.766;2022-07-10T03:22:12;10.77;;;2.60;;
62050;SDS011;48008;51.204;6.766;2022-07-10T03:24:39;9.85;;;2.50;;
62050;SDS011;48008;51.204;6.766;2022-07-10T03:27:05;11.52;;;2.20;;
62050;SDS011;48008;51.204;6.766;2022-07-10T03:29:32;14.48;;;2.80;;
62050;SDS011;48008;51.204;6.766;2022-07-10T03:31:59;18.67;;;2.72;;
62050;SDS011;48008;51.204;6.766;2022-07-10T03:34:26;11.10;;;2.60;;
62050;SDS011;48008;51.204;6.766;2022-07-10T03:36:52;10.32;;;2.35;;
62050;SDS011;48008;51.204;6.766;2022-07-10T03:39:19;10.80;;;2.60;;
62050;SDS011;48008;51.204;6.766;2022-07-10T03:41:46;14.68;;;2.50;;
62050;SDS011;48008;51.204;6.766;2022-07-10T03:44:13;12.27;;;2.58;;
62050;SDS011;48008;51.204;6.766;2022-07-10T03:46:39;9.60;;;2.38;;
62050;SDS011;48008;51.204;6.766;2022-07-10T03:49:06;11.30;;;2.60;;
62050;SDS011;48008;51.204;6.766;2022-07-10T03:51:34;11.65;;;2.70;;
62050;SDS011;48008;51.204;6.766;2022-07-10T03:54:01;8.73;;;2.50;;
62050;SDS011;48008;51.204;6.766;2022-07-10T03:56:27;11.82;;;2.60;;
62050;SDS011;48008;51.204;6.766;2022-07-10T03:59:14;13.77;;;2.90;;
62050;SDS011;48008;51.204;6.766;2022-07-10T04:01:41;14.25;;;2.58;;
62050;SDS011;48008;51.204;6.766;2022-07-10T04:04:07;13.18;;;2.65;;
62050;SDS011;48008;51.204;6.766;2022-07-10T04:06:34;9.80;;;2.90;;
62050;SDS011;48008;51.204;6.766;2022-07-10T04:09:04;12.05;;;2.65;;
62050;SDS011;48008;51.204;6.766;2022-07-10T04:11:31;13.40;;;2.70;;
62050;SDS011;48008;51.204;6.766;2022-07-10T04:13:59;11.52;;;2.95;;
62050;SDS011;48008;51.204;6.766;2022-07-10T04:16:25;9.48;;;2.90;;
62050;SDS011;48008;51.204;6.766;2022-07-10T04:18:52;14.75;;;3.28;;
62050;SDS011;48008;51.204;6.766;2022-07-10T04:21:19;12.98;;;3.38;;
62050;SDS011;48008;51.204;6.766;2022-07-10T04:23:45;8.00;;;2.90;;
62050;SDS011;48008;51.204;6.766;2022-07-10T04:26:12;15.27;;;3.53;;
62050;SDS011;48008;51.204;6.766;2022-07-10T04:28:39;10.57;;;2.75;;
62050;SDS011;48008;51.204;6.766;2022-07-10T04:31:06;13.00;;;3.25;;
62050;SDS011;48008;51.204;6.766;2022-07-10T04:33:32;14.98;;;3.40;;
62050;SDS011;48008;51.204;6.766;2022-07-10T04:35:59;19.23;;;3.47;;
62050;SDS011;48008;51.204;6.766;2022-07-10T04:38:26;16.10;;;3.38;;
62050;SDS011;48008;51.204;6.766;2022-07-10T04:40:53;12.60;;;3.70;;
62050;SDS011;48008;51.204;6.766;2022-07-10T04:43:19;15.30;;;3.90;;
62050;SDS011;48008;51.204;6.766;2022-07-10T04:45:47;19.10;;;3.60;;
62050;SDS011;48008;51.204;6.766;2022-07-10T04:48:13;13.73;;;3.60;;
62050;SDS011;48008;51.204;6.766;2022-07-10T04:50:40;19.33;;;3.78;;
62050;SDS011;48008;51.204;6.766;2022-07-10T04:53:08;10.90;;;3.30;;
62050;SDS011;48008;51.204;6.766;2022-07-10T04:55:34;11.15;;;3.38;;
62050;SDS011;48008;51.204;6.766;2022-07-10T04:58:01;15.27;;;4.05;;
62050;SDS011;48008;51.204;6.766;2022-07-10T05:00:28;16.48;;;3.50;;
62050;SDS011;48008;51.204;6.766;2022-07-10T05:02:54;17.48;;;3.65;;
62050;SDS011;48008;51.204;6.766;2022-07-10T05:05:21;15.40;;;4.05;;
62050;SDS011;48008;51.204;6.766;2022-07-10T05:07:48;14.20;;;3.35;;
62050;SDS011;48008;51.204;6.766;2022-07-10T05:10:15;20.35;;;4.05;;
62050;SDS011;48008;51.204;6.766;2022-07-10T05:12:41;23.77;;;3.90;;
62050;SDS011;48008;51.204;6.766;2022-07-10T05:15:08;19.33;;;3.28;;
62050;SDS011;48008;51.204;6.766;2022-07-10T05:17:35;16.27;;;3.22;;
62050;SDS011;48008;51.204;6.766;2022-07-10T05:20:02;15.35;;;3.60;;
62050;SDS011;48008;51.204;6.766;2022-07-10T05:22:29;15.52;;;4.05;;
62050;SDS011;48008;51.204;6.766;2022-07-10T05:24:56;14.23;;;3.90;;
62050;SDS011;48008;51.204;6.766;2022-07-10T05:27:23;15.57;;;4.72;;
62050;SDS011;48008;51.204;6.766;2022-07-10T05:29:51;17.23;;;4.57;;
62050;SDS011;48008;51.204;6.766;2022-07-10T05:32:17;15.48;;;4.18;;
62050;SDS011;48008;51.204;6.766;2022-07-10T05:34:44;16.55;;;3.58;;
62050;SDS011;48008;51.204;6.766;2022-07-10T05:37:11;19.92;;;4.13;;
62050;SDS011;48008;51.204;6.766;2022-07-10T05:39:38;14.90;;;3.92;;
62050;SDS011;48008;51.204;6.766;2022-07-10T05:42:05;15.05;;;3.40;;
62050;SDS011;48008;51.204;6.766;2022-07-10T05:44:31;14.52;;;3.33;;
62050;SDS011;48008;51.204;6.766;2022-07-10T05:46:58;15.68;;;3.50;;
62050;SDS011;48008;51.204;6.766;2022-07-10T05:49:26;13.77;;;3.15;;
62050;SDS011;48008;51.204;6.766;2022-07-10T05:51:52;13.40;;;3.47;;
62050;SDS011;48008;51.204;6.766;2022-07-10T05:54:20;11.90;;;3.10;;
62050;SDS011;48008;51.204;6.766;2022-07-10T05:56:47;13.65;;;3.38;;
62050;SDS011;48008;51.204;6.766;2022-07-10T05:59:14;14.93;;;3.72;;
62050;SDS011;48008;51.204;6.766;2022-07-10T06:01:41;22.42;;;4.10;;
62050;SDS011;48008;51.204;6.766;2022-07-10T06:04:07;12.40;;;3.97;;
62050;SDS011;48008;51.204;6.766;2022-07-10T06:06:34;18.35;;;3.78;;
62050;SDS011;48008;51.204;6.766;2022-07-10T06:09:00;14.82;;;3.67;;
62050;SDS011;48008;51.204;6.766;2022-07-10T06:11:27;19.92;;;3.95;;
62050;SDS011;48008;51.204;6.766;2022-07-10T06:13:54;16.30;;;3.60;;
62050;SDS011;48008;51.204;6.766;2022-07-10T06:16:20;12.98;;;3.58;;
62050;SDS011;48008;51.204;6.766;2022-07-10T06:18:47;15.65;;;4.03;;
62050;SDS011;48008;51.204;6.766;2022-07-10T06:21:14;14.35;;;3.67;;
62050;SDS011;48008;51.204;6.766;2022-07-10T06:23:41;14.45;;;3.50;;
62050;SDS011;48008;51.204;6.766;2022-07-10T06:26:08;14.88;;;3.53;;
62050;SDS011;48008;51.204;6.766;2022-07-10T06:28:35;11.35;;;3.15;;
62050;SDS011;48008;51.204;6.766;2022-07-10T06:31:02;14.05;;;3.15;;
62050;SDS011;48008;51.204;6.766;2022-07-10T06:33:29;16.35;;;3.72;;
62050;SDS011;48008;51.204;6.766;2022-07-10T06:35:55;20.25;;;3.17;;
62050;SDS011;48008;51.204;6.766;2022-07-10T06:38:22;18.80;;;3.15;;
62050;SDS011;48008;51.204;6.766;2022-07-10T06:40:49;14.43;;;3.10;;
62050;SDS011;48008;51.204;6.766;2022-07-10T06:43:16;12.70;;;2.85;;
62050;SDS011;48008;51.204;6.766;2022-07-10T06:45:43;11.27;;;2.60;;
62050;SDS011;48008;51.204;6.766;2022-07-10T06:48:10;14.48;;;2.78;;
62050;SDS011;48008;51.204;6.766;2022-07-10T06:50:37;14.93;;;2.72;;
62050;SDS011;48008;51.204;6.766;2022-07-10T06:53:04;15.70;;;3.10;;
62050;SDS011;48008;51.204;6.766;2022-07-10T06:55:33;13.00;;;3.10;;
62050;SDS011;48008;51.204;6.766;2022-07-10T06:58:01;18.85;;;3.15;;
62050;SDS011;48008;51.204;6.766;2022-07-10T07:00:28;11.93;;;2.58;;
62050;SDS011;48008;51.204;6.766;2022-07-10T07:02:55;15.60;;;3.33;;
62050;SDS011;48008;51.204;6.766;2022-07-10T07:05:22;14.63;;;2.90;;
62050;SDS011;48008;51.204;6.766;2022-07-10T07:07:48;13.18;;;3.00;;
62050;SDS011;48008;51.204;6.766;2022-07-10T07:10:15;18.38;;;3.00;;
62050;SDS011;48008;51.204;6.766;2022-07-10T07:12:42;14.90;;;2.70;;
62050;SDS011;48008;51.204;6.766;2022-07-10T07:15:09;17.15;;;2.90;;
62050;SDS011;48008;51.204;6.766;2022-07-10T07:17:40;15.88;;;2.85;;
62050;SDS011;48008;51.204;6.766;2022-07-10T07:20:24;13.60;;;2.55;;
62050;SDS011;48008;51.204;6.766;2022-07-10T07:23:12;12.90;;;2.38;;
62050;SDS011;48008;51.204;6.766;2022-07-10T07:25:39;14.77;;;3.00;;
62050;SDS011;48008;51.204;6.766;2022-07-10T07:28:08;13.32;;;2.80;;
62050;SDS011;48008;51.204;6.766;2022-07-10T07:30:36;19.35;;;3.38;;
62050;SDS011;48008;51.204;6.766;2022-07-10T07:33:03;17.45;;;3.00;;
62050;SDS011;48008;51.204;6.766;2022-07-10T07:35:30;15.45;;;2.97;;
62050;SDS011;48008;51.204;6.766;2022-07-10T07:37:57;17.27;;;3.05;;
62050;SDS011;48008;51.204;6.766;2022-07-10T07:40:24;12.10;;;2.83;;
62050;SDS011;48008;51.204;6.766;2022-07-10T07:42:52;17.10;;;3.15;;
62050;SDS011;48008;51.204;6.766;2022-07-10T07:45:20;17.38;;;3.20;;
62050;SDS011;48008;51.204;6.766;2022-07-10T07:47:48;12.98;;;3.00;;
62050;SDS011;48008;51.204;6.766;2022-07-10T07:50:17;11.10;;;2.60;;
62050;SDS011;48008;51.204;6.766;2022-07-10T07:52:46;18.67;;;3.15;;
62050;SDS011;48008;51.204;6.766;2022-07-10T07:55:13;13.18;;;2.90;;
62050;SDS011;48008;51.204;6.766;2022-07-10T07:57:42;13.07;;;2.88;;
62050;SDS011;48008;51.204;6.766;2022-07-10T08:00:10;14.25;;;2.95;;
62050;SDS011;48008;51.204;6.766;2022-07-10T08:02:38;16.65;;;3.10;;
62050;SDS011;48008;51.204;6.766;2022-07-10T08:05:05;12.70;;;3.45;;
62050;SDS011;48008;51.204;6.766;2022-07-10T08:07:33;14.80;;;2.75;;
62050;SDS011;48008;51.204;6.766;2022-07-10T08:10:05;14.85;;;2.70;;
62050;SDS011;48008;51.204;6.766;2022-07-10T08:12:34;12.48;;;2.80;;
62050;SDS011;48008;51.204;6.766;2022-07-10T08:15:01;16.52;;;2.90;;
62050;SDS011;48008;51.204;6.766;2022-07-10T08:17:28;19.25;;;3.03;;
62050;SDS011;48008;51.204;6.766;2022-07-10T08:19:54;14.23;;;3.40;;
62050;SDS011;48008;51.204;6.766;2022-07-10T08:22:21;16.40;;;2.92;;
62050;SDS011;48008;51.204;6.766;2022-07-10T08:24:48;13.73;;;3.15;;
62050;SDS011;48008;51.204;6.766;2022-07-10T08:27:14;14.93;;;2.80;;
62050;SDS011;48008;51.204;6.766;2022-07-10T08:29:42;14.55;;;3.10;;
62050;SDS011;48008;51.204;6.766;2022-07-10T08:32:09;10.88;;;2.75;;
62050;SDS011;48008;51.204;6.766;2022-07-10T08:34:36;15.57;;;3.47;;
62050;SDS011;48008;51.204;6.766;2022-07-10T08:37:03;16.40;;;3.08;;
62050;SDS011;48008;51.204;6.766;2022-07-10T08:39:30;12.07;;;3.00;;
62050;SDS011;48008;51.204;6.766;2022-07-10T08:41:58;13.35;;;2.90;;
62050;SDS011;48008;51.204;6.766;2022-07-10T08:44:26;18.17;;;3.00;;
62050;SDS011;48008;51.204;6.766;2022-07-10T08:46:54;13.88;;;2.83;;
62050;SDS011;48008;51.204;6.766;2022-07-10T08:49:26;21.13;;;3.40;;
62050;SDS011;48008;51.204;6.766;2022-07-10T08:52:12;11.65;;;2.72;;
62050;SDS011;48008;51.204;6.766;2022-07-10T08:54:49;11.00;;;2.60;;
62050;SDS011;48008;51.204;6.766;2022-07-10T08:57:16;19.15;;;3.80;;
62050;SDS011;48008;51.204;6.766;2022-07-10T08:59:46;14.23;;;3.00;;
62050;SDS011;48008;51.204;6.766;2022-07-10T09:02:13;15.80;;;2.90;;
62050;SDS011;48008;51.204;6.766;2022-07-10T09:04:39;20.33;;;3.00;;
62050;SDS011;48008;51.204;6.766;2022-07-10T09:07:06;13.85;;;3.13;;
62050;SDS011;48008;51.204;6.766;2022-07-10T09:09:50;10.43;;;2.65;;
62050;SDS011;48008;51.204;6.766;2022-07-10T09:12:19;19.50;;;2.97;;
62050;SDS011;48008;51.204;6.766;2022-07-10T09:14:47;13.77;;;2.65;;
62050;SDS011;48008;51.204;6.766;2022-07-10T09:17:15;17.25;;;2.90;;
62050;SDS011;48008;51.204;6.766;2022-07-10T09:19:43;12.82;;;2.70;;
62050;SDS011;48008;51.204;6.766;2022-07-10T09:22:11;14.15;;;3.72;;
62050;SDS011;48008;51.204;6.766;2022-07-10T09:24:40;17.13;;;3.40;;
62050;SDS011;48008;51.204;6.766;2022-07-10T09:27:10;13.98;;;3.13;;
62050;SDS011;48008;51.204;6.766;2022-07-10T09:29:45;17.35;;;3.55;;
62050;SDS011;48008;51.204;6.766;2022-07-10T09:32:14;12.27;;;3.00;;
62050;SDS011;48008;51.204;6.766;2022-07-10T09:34:47;15.68;;;3.60;;
62050;SDS011;48008;51.204;6.766;2022-07-10T09:37:31;14.02;;;3.25;;
62050;SDS011;48008;51.204;6.766;2022-07-10T09:39:58;16.45;;;2.90;;
62050;SDS011;48008;51.204;6.766;2022-07-10T09:42:38;17.55;;;3.33;;
62050;SDS011;48008;51.204;6.766;2022-07-10T09:50:24;20.05;;;3.42;;
62050;SDS011;48008;51.204;6.766;2022-07-10T09:52:54;14.80;;;3.75;;
62050;SDS011;48008;51.204;6.766;2022-07-10T09:55:23;13.45;;;3.45;;
62050;SDS011;48008;51.204;6.766;2022-07-10T09:57:54;13.73;;;3.00;;
62050;SDS011;48008;51.204;6.766;2022-07-10T10:03:00;16.05;;;3.15;;
62050;SDS011;48008;51.204;6.766;2022-07-10T10:05:32;15.05;;;3.40;;
62050;SDS011;48008;51.204;6.766;2022-07-10T10:08:06;14.35;;;3.58;;
62050;SDS011;48008;51.204;6.766;2022-07-10T10:10:40;15.15;;;3.70;;
62050;SDS011;48008;51.204;6.766;2022-07-10T10:13:11;14.60;;;3.83;;
62050;SDS011;48008;51.204;6.766;2022-07-10T10:18:10;13.65;;;4.15;;
62050;SDS011;48008;51.204;6.766;2022-07-10T10:20:38;12.73;;;3.70;;
62050;SDS011;48008;51.204;6.766;2022-07-10T10:23:09;14.55;;;4.50;;
62050;SDS011;48008;51.204;6.766;2022-07-10T10:25:38;13.57;;;4.75;;
62050;SDS011;48008;51.204;6.766;2022-07-10T10:28:06;15.07;;;4.00;;
62050;SDS011;48008;51.204;6.766;2022-07-10T10:30:42;12.50;;;4.00;;
62050;SDS011;48008;51.204;6.766;2022-07-10T10:36:06;9.25;;;3.35;;
62050;SDS011;48008;51.204;6.766;2022-07-10T10:39:09;12.15;;;3.20;;
62050;SDS011;48008;51.204;6.766;2022-07-10T10:47:00;8.32;;;2.58;;
62050;SDS011;48008;51.204;6.766;2022-07-10T10:50:03;7.53;;;2.38;;
62050;SDS011;48008;51.204;6.766;2022-07-10T10:52:20;8.40;;;2.35;;
62050;SDS011;48008;51.204;6.766;2022-07-10T10:55:02;8.20;;;2.10;;
62050;SDS011;48008;51.204;6.766;2022-07-10T11:00:04;9.43;;;2.50;;
62050;SDS011;48008;51.204;6.766;2022-07-10T11:02:35;8.45;;;2.47;;
62050;SDS011;48008;51.204;6.766;2022-07-10T11:07:57;10.68;;;2.50;;
62050;SDS011;48008;51.204;6.766;2022-07-10T11:10:30;9.98;;;2.50;;
62050;SDS011;48008;51.204;6.766;2022-07-10T11:13:03;9.30;;;2.80;;
62050;SDS011;48008;51.204;6.766;2022-07-10T11:15:40;7.60;;;2.60;;
62050;SDS011;48008;51.204;6.766;2022-07-10T11:18:24;9.38;;;2.85;;
62050;SDS011;48008;51.204;6.766;2022-07-10T11:20:55;10.50;;;2.65;;
62050;SDS011;48008;51.204;6.766;2022-07-10T11:26:36;13.57;;;2.85;;
62050;SDS011;48008;51.204;6.766;2022-07-10T11:29:18;10.00;;;2.70;;
62050;SDS011;48008;51.204;6.766;2022-07-10T11:32:00;9.75;;;2.97;;
62050;SDS011;48008;51.204;6.766;2022-07-10T11:34:34;12.50;;;3.03;;
62050;SDS011;48008;51.204;6.766;2022-07-10T11:37:03;11.32;;;3.22;;
62050;SDS011;48008;51.204;6.766;2022-07-10T11:39:40;14.23;;;3.38;;
62050;SDS011;48008;51.204;6.766;2022-07-10T11:42:08;11.45;;;3.08;;
62050;SDS011;48008;51.204;6.766;2022-07-10T11:44:35;11.98;;;3.03;;
62050;SDS011;48008;51.204;6.766;2022-07-10T11:47:02;10.48;;;3.65;;
62050;SDS011;48008;51.204;6.766;2022-07-10T11:49:30;12.02;;;3.92;;
62050;SDS011;48008;51.204;6.766;2022-07-10T11:52:00;9.18;;;3.38;;
62050;SDS011;48008;51.204;6.766;2022-07-10T11:54:29;10.43;;;3.20;;
62050;SDS011;48008;51.204;6.766;2022-07-10T11:57:03;9.68;;;2.90;;
62050;SDS011;48008;51.204;6.766;2022-07-10T11:59:32;11.13;;;3.00;;
62050;SDS011;48008;51.204;6.766;2022-07-10T12:01:58;12.98;;;3.40;;
62050;SDS011;48008;51.204;6.766;2022-07-10T12:04:28;12.43;;;2.92;;
62050;SDS011;48008;51.204;6.766;2022-07-10T12:06:56;13.70;;;3.30;;
62050;SDS011;48008;51.204;6.766;2022-07-10T12:09:23;13.38;;;3.10;;
62050;SDS011;48008;51.204;6.766;2022-07-10T12:11:58;12.38;;;3.20;;
62050;SDS011;48008;51.204;6.766;2022-07-10T12:14:31;11.32;;;3.22;;
62050;SDS011;48008;51.204;6.766;2022-07-10T12:16:58;13.18;;;3.25;;
62050;SDS011;48008;51.204;6.766;2022-07-10T12:19:28;12.02;;;3.20;;
62050;SDS011;48008;51.204;6.766;2022-07-10T12:21:58;14.45;;;3.72;;
62050;SDS011;48008;51.204;6.766;2022-07-10T12:24:25;10.25;;;3.05;;
62050;SDS011;48008;51.204;6.766;2022-07-10T12:26:53;12.32;;;3.13;;
62050;SDS011;48008;51.204;6.766;2022-07-10T12:29:23;12.23;;;3.25;;
62050;SDS011;48008;51.204;6.766;2022-07-10T12:31:53;11.38;;;3.53;;
62050;SDS011;48008;51.204;6.766;2022-07-10T12:34:58;8.75;;;3.03;;
62050;SDS011;48008;51.204;6.766;2022-07-10T12:37:10;8.88;;;3.30;;
62050;SDS011;48008;51.204;6.766;2022-07-10T12:39:45;10.02;;;3.30;;
62050;SDS011;48008;51.204;6.766;2022-07-10T12:42:24;15.05;;;3.47;;
62050;SDS011;48008;51.204;6.766;2022-07-10T12:45:14;15.68;;;3.50;;
62050;SDS011;48008;51.204;6.766;2022-07-10T12:47:43;10.88;;;3.33;;
62050;SDS011;48008;51.204;6.766;2022-07-10T12:50:12;17.38;;;3.78;;
62050;SDS011;48008;51.204;6.766;2022-07-10T12:52:40;15.23;;;3.75;;
62050;SDS011;48008;51.204;6.766;2022-07-10T12:55:15;13.25;;;3.50;;
62050;SDS011;48008;51.204;6.766;2022-07-10T12:57:46;11.00;;;3.47;;
62050;SDS011;48008;51.204;6.766;2022-07-10T13:00:25;15.05;;;3.53;;
62050;SDS011;48008;51.204;6.766;2022-07-10T13:05:36;13.77;;;3.15;;
62050;SDS011;48008;51.204;6.766;2022-07-10T13:08:09;13.18;;;3.40;;
62050;SDS011;48008;51.204;6.766;2022-07-10T13:10:41;11.10;;;3.50;;
62050;SDS011;48008;51.204;6.766;2022-07-10T13:13:11;20.40;;;3.95;;
62050;SDS011;48008;51.204;6.766;2022-07-10T13:15:39;11.32;;;3.40;;
62050;SDS011;48008;51.204;6.766;2022-07-10T13:18:07;12.43;;;3.63;;
62050;SDS011;48008;51.204;6.766;2022-07-10T13:20:34;13.57;;;3.70;;
62050;SDS011;48008;51.204;6.766;2022-07-10T13:23:01;13.25;;;3.90;;
62050;SDS011;48008;51.204;6.766;2022-07-10T13:25:28;12.00;;;2.85;;
62050;SDS011;48008;51.204;6.766;2022-07-10T13:27:55;11.93;;;3.08;;
62050;SDS011;48008;51.204;6.766;2022-07-10T13:30:22;11.65;;;2.83;;
62050;SDS011;48008;51.204;6.766;2022-07-10T13:32:49;12.93;;;2.90;;
62050;SDS011;48008;51.204;6.766;2022-07-10T13:35:15;14.05;;;3.22;;
62050;SDS011;48008;51.204;6.766;2022-07-10T13:37:42;13.88;;;3.03;;
62050;SDS011;48008;51.204;6.766;2022-07-10T13:40:09;12.60;;;2.70;;
62050;SDS011;48008;51.204;6.766;2022-07-10T13:42:36;10.02;;;2.85;;
62050;SDS011;48008;51.204;6.766;2022-07-10T13:45:03;11.10;;;2.50;;
62050;SDS011;48008;51.204;6.766;2022-07-10T13:47:30;13.43;;;2.80;;
62050;SDS011;48008;51.204;6.766;2022-07-10T13:49:57;8.05;;;2.65;;
62050;SDS011;48008;51.204;6.766;2022-07-10T13:52:24;10.82;;;2.78;;
62050;SDS011;48008;51.204;6.766;2022-07-10T13:54:50;12.95;;;3.08;;
62050;SDS011;48008;51.204;6.766;2022-07-10T13:57:17;16.25;;;2.70;;
62050;SDS011;48008;51.204;6.766;2022-07-10T13:59:44;11.07;;;2.88;;
62050;SDS011;48008;51.204;6.766;2022-07-10T14:02:12;15.25;;;2.80;;
62050;SDS011;48008;51.204;6.766;2022-07-10T14:04:41;11.73;;;3.00;;
62050;SDS011;48008;51.204;6.766;2022-07-10T14:07:09;8.75;;;2.47;;
62050;SDS011;48008;51.204;6.766;2022-07-10T14:09:36;12.55;;;2.63;;
62050;SDS011;48008;51.204;6.766;2022-07-10T14:12:03;16.55;;;2.67;;
62050;SDS011;48008;51.204;6.766;2022-07-10T14:14:30;11.98;;;2.60;;
62050;SDS011;48008;51.204;6.766;2022-07-10T14:16:57;8.00;;;2.72;;
62050;SDS011;48008;51.204;6.766;2022-07-10T14:19:23;11.88;;;3.25;;
62050;SDS011;48008;51.204;6.766;2022-07-10T14:21:50;10.88;;;2.70;;
62050;SDS011;48008;51.204;6.766;2022-07-10T14:24:17;14.13;;;3.00;;
62050;SDS011;48008;51.204;6.766;2022-07-10T14:26:44;10.20;;;2.60;;
62050;SDS011;48008;51.204;6.766;2022-07-10T14:29:10;10.93;;;2.70;;
62050;SDS011;48008;51.204;6.766;2022-07-10T14:31:38;10.65;;;3.28;;
62050;SDS011;48008;51.204;6.766;2022-07-10T14:34:05;8.90;;;3.03;;
62050;SDS011;48008;51.204;6.766;2022-07-10T14:36:32;9.75;;;2.90;;
62050;SDS011;48008;51.204;6.766;2022-07-10T14:38:59;11.25;;;3.05;;
62050;SDS011;48008;51.204;6.766;2022-07-10T14:41:25;12.40;;;3.10;;
62050;SDS011;48008;51.204;6.766;2022-07-10T14:43:52;12.40;;;2.92;;
62050;SDS011;48008;51.204;6.766;2022-07-10T14:46:19;8.48;;;2.53;;
62050;SDS011;48008;51.204;6.766;2022-07-10T14:48:46;10.48;;;2.70;;
62050;SDS011;48008;51.204;6.766;2022-07-10T14:51:12;7.03;;;2.50;;
62050;SDS011;48008;51.204;6.766;2022-07-10T14:53:40;8.48;;;2.40;;
62050;SDS011;48008;51.204;6.766;2022-07-10T14:56:08;7.15;;;2.30;;
62050;SDS011;48008;51.204;6.766;2022-07-10T14:58:35;11.77;;;2.67;;
62050;SDS011;48008;51.204;6.766;2022-07-10T15:01:10;12.30;;;2.80;;
62050;SDS011;48008;51.204;6.766;2022-07-10T15:03:37;11.80;;;3.13;;
62050;SDS011;48008;51.204;6.766;2022-07-10T15:06:04;11.13;;;3.03;;
62050;SDS011;48008;51.204;6.766;2022-07-10T15:08:32;6.75;;;2.40;;
62050;SDS011;48008;51.204;6.766;2022-07-10T15:10:58;8.20;;;2.47;;
62050;SDS011;48008;51.204;6.766;2022-07-10T15:13:26;7.88;;;2.85;;
62050;SDS011;48008;51.204;6.766;2022-07-10T15:15:53;11.65;;;2.88;;